createdAt,value
2022-07-29T00:02:12.288Z,100261
2022-07-29T00:07:12.289Z,100265
2022-07-29T00:12:12.293Z,100265
2022-07-29T00:17:12.287Z,100265
2022-07-29T00:22:12.308Z,100263
2022-07-29T00:27:12.346Z,100261
2022-07-29T00:32:12.326Z,100258
2022-07-29T00:37:12.345Z,100272
2022-07-29T00:42:12.333Z,100272
2022-07-29T00:47:12.406Z,100270
2022-07-29T00:52:12.317Z,100271
2022-07-29T00:57:12.341Z,100265
2022-07-29T01:02:12.454Z,100267
2022-07-29T01:07:12.325Z,100266
2022-07-29T01:12:12.310Z,100257
2022-07-29T01:17:12.419Z,100254
2022-07-29T01:22:12.353Z,100251
2022-07-29T01:27:12.308Z,100261
2022-07-29T01:32:19.558Z,100261
2022-07-29T01:37:12.309Z,100250
2022-07-29T01:42:12.350Z,100250
2022-07-29T01:47:12.351Z,100248
2022-07-29T01:52:12.370Z,100248
2022-07-29T01:57:12.605Z,100242
2022-07-29T02:02:12.399Z,100244
2022-07-29T02:07:12.331Z,100243
2022-07-29T02:12:12.367Z,100249
2022-07-29T02:17:12.365Z,100251
2022-07-29T02:22:12.372Z,100251
2022-07-29T02:27:12.345Z,100249
2022-07-29T02:32:12.380Z,100243
2022-07-29T02:37:12.371Z,100244
2022-07-29T02:42:12.385Z,100244
2022-07-29T02:47:12.413Z,100236
2022-07-29T02:52:12.420Z,100236
2022-07-29T02:57:12.351Z,100240
2022-07-29T03:02:12.572Z,100235
2022-07-29T03:07:12.385Z,100243
2022-07-29T03:12:12.403Z,100247
2022-07-29T03:17:12.390Z,100245
2022-07-29T03:22:12.406Z,100247
2022-07-29T03:27:12.370Z,100245
2022-07-29T03:32:12.390Z,100251
2022-07-29T03:37:12.438Z,100246
2022-07-29T03:42:12.420Z,100244
2022-07-29T03:47:12.415Z,100247
2022-07-29T03:52:12.421Z,100246
2022-07-29T03:57:12.374Z,100246
2022-07-29T04:02:12.492Z,100259
2022-07-29T04:07:12.388Z,100258
2022-07-29T04:12:12.432Z,100262
2022-07-29T04:17:12.435Z,100263
2022-07-29T04:22:12.446Z,100259
2022-07-29T04:27:12.395Z,100258
2022-07-29T04:32:12.424Z,100258
2022-07-29T04:37:12.439Z,100260
2022-07-29T04:42:12.450Z,100251
2022-07-29T04:47:12.467Z,100251
2022-07-29T04:52:12.437Z,100259
2022-07-29T04:57:12.450Z,100267
2022-07-29T05:02:12.483Z,100268
2022-07-29T05:07:12.473Z,100275
2022-07-29T05:12:12.487Z,100272
2022-07-29T05:17:12.444Z,100275
2022-07-29T05:22:12.462Z,100275
2022-07-29T05:27:12.465Z,100276
2022-07-29T05:32:12.499Z,100276
2022-07-29T05:37:12.439Z,100265
2022-07-29T05:42:12.472Z,100275
2022-07-29T05:47:12.529Z,100278
2022-07-29T05:52:12.486Z,100274
2022-07-29T05:57:12.446Z,100280
2022-07-29T06:02:12.499Z,100282
2022-07-29T06:07:12.474Z,100279
2022-07-29T06:12:12.484Z,100277
2022-07-29T06:17:12.506Z,100281
2022-07-29T06:22:12.500Z,100280
2022-07-29T06:27:12.510Z,100282
2022-07-29T06:32:12.527Z,100287
2022-07-29T06:37:15.480Z,100283
2022-07-29T06:42:12.506Z,100290
2022-07-29T06:47:12.496Z,100289
2022-07-29T06:52:12.532Z,100289
2022-07-29T06:57:12.486Z,100286
2022-07-29T07:02:12.636Z,100283
2022-07-29T07:07:12.493Z,100283
2022-07-29T07:12:12.529Z,100287
2022-07-29T07:17:12.540Z,100279
2022-07-29T07:22:12.521Z,100282
2022-07-29T07:27:12.533Z,100274
2022-07-29T07:32:12.532Z,100271
2022-07-29T07:37:12.581Z,100265
2022-07-29T07:42:12.509Z,100271
2022-07-29T07:47:12.723Z,100273
2022-07-29T07:52:12.549Z,100261
2022-07-29T07:57:12.542Z,100264
2022-07-29T08:02:12.641Z,100256
2022-07-29T08:07:12.542Z,100250
2022-07-29T08:12:12.557Z,100245
2022-07-29T08:17:12.572Z,100245
2022-07-29T08:22:12.554Z,100242
2022-07-29T08:27:26.912Z,100242
2022-07-29T08:32:12.655Z,100245
2022-07-29T08:37:12.565Z,100242
2022-07-29T08:42:12.594Z,100242
2022-07-29T08:47:12.580Z,100241
2022-07-29T08:52:12.578Z,100243
2022-07-29T08:57:12.598Z,100243
2022-07-29T09:02:12.548Z,100231
2022-07-29T09:07:12.588Z,100226
2022-07-29T09:12:12.566Z,100222
2022-07-29T09:17:12.676Z,100227
2022-07-29T09:22:12.584Z,100220
2022-07-29T09:27:12.611Z,100216
2022-07-29T09:32:12.718Z,100208
2022-07-29T09:37:12.627Z,100205
2022-07-29T09:42:12.586Z,100197
2022-07-29T09:47:12.696Z,100195
2022-07-29T09:52:12.633Z,100190
2022-07-29T09:57:12.597Z,100185
2022-07-29T10:02:12.612Z,100172
2022-07-29T10:07:12.620Z,100176
2022-07-29T10:12:12.592Z,100178
2022-07-29T10:17:12.613Z,100176
2022-07-29T10:22:12.702Z,100176
2022-07-29T10:27:12.631Z,100165
2022-07-29T10:32:12.642Z,100156
2022-07-29T10:37:12.660Z,100153
2022-07-29T10:42:12.646Z,100153
2022-07-29T10:47:12.682Z,100152
2022-07-29T10:52:12.632Z,100158
2022-07-29T10:57:12.658Z,100148
2022-07-29T11:02:36.501Z,100136
2022-07-29T11:07:12.827Z,100130
2022-07-29T11:12:12.653Z,100131
2022-07-29T11:17:14.057Z,100125
2022-07-29T11:22:16.611Z,100117
2022-07-29T11:27:13.311Z,100117
2022-07-29T11:32:15.764Z,100117
2022-07-29T11:37:12.686Z,100106
2022-07-29T11:42:13.329Z,100100
2022-07-29T11:47:12.650Z,100097
2022-07-29T11:52:12.684Z,100087
2022-07-29T11:57:12.643Z,100086
2022-07-29T12:02:37.096Z,100086
2022-07-29T12:07:15.343Z,100078
2022-07-29T12:12:12.936Z,100068
2022-07-29T12:17:12.664Z,100068
2022-07-29T12:22:12.708Z,100049
2022-07-29T12:27:12.662Z,100048
2022-07-29T12:32:14.907Z,100048
2022-07-29T12:37:12.716Z,100030
2022-07-29T12:42:14.813Z,100022
2022-07-29T12:47:12.684Z,100013
2022-07-29T12:52:12.724Z,100008
2022-07-29T12:57:20.333Z,100001
2022-07-29T13:02:12.800Z,100001
2022-07-29T13:07:12.748Z,99993
2022-07-29T13:12:12.744Z,99990
2022-07-29T13:17:12.752Z,99990
2022-07-29T13:22:12.753Z,99985
2022-07-29T13:27:12.719Z,99981
2022-07-29T13:32:12.752Z,99977
2022-07-29T13:37:12.744Z,99969
2022-07-29T13:42:12.742Z,99968
2022-07-29T13:47:12.759Z,99958
2022-07-29T13:52:12.761Z,99956
2022-07-29T13:57:12.727Z,99957
2022-07-29T14:02:12.788Z,99952
2022-07-29T14:07:16.299Z,99943
2022-07-29T14:12:12.786Z,99941
2022-07-29T14:17:12.795Z,99938
2022-07-29T14:22:12.803Z,99940
2022-07-29T14:27:12.858Z,99928
2022-07-29T14:32:12.831Z,99930
2022-07-29T14:37:15.846Z,99926
2022-07-29T14:42:13.134Z,99917
2022-07-29T14:47:12.790Z,99917
2022-07-29T14:52:12.787Z,99911
2022-07-29T14:57:12.786Z,99905
2022-07-29T15:02:12.816Z,99893
2022-07-29T15:07:12.837Z,99893
2022-07-29T15:17:12.798Z,99887
2022-07-29T15:22:12.824Z,99887
2022-07-29T15:27:12.816Z,99879
2022-07-29T15:32:12.857Z,99878
2022-07-29T15:37:12.908Z,99878
2022-07-29T15:42:12.786Z,99862
2022-07-29T15:47:12.824Z,99857
2022-07-29T15:52:12.851Z,99854
2022-07-29T15:57:12.822Z,99847
2022-07-29T16:02:12.831Z,99842
2022-07-29T16:07:12.853Z,99842
2022-07-29T16:12:15.407Z,99843
2022-07-29T16:17:15.013Z,99845
2022-07-29T16:22:12.889Z,99847
2022-07-29T16:27:12.824Z,99849
2022-07-29T16:32:12.844Z,99849
2022-07-29T16:37:12.854Z,99847
2022-07-29T16:42:25.750Z,99843
2022-07-29T16:47:12.867Z,99839
2022-07-29T16:52:12.861Z,99840
2022-07-29T17:02:13.065Z,99847
2022-07-29T17:07:12.834Z,99843
2022-07-29T17:12:12.987Z,99834
2022-07-29T17:17:13.866Z,99841
2022-07-29T17:22:17.173Z,99846
2022-07-29T17:27:12.895Z,99845
2022-07-29T17:32:12.897Z,99847
2022-07-29T17:37:12.872Z,99851
2022-07-29T17:42:12.904Z,99846
2022-07-29T17:47:16.098Z,99841
2022-07-29T17:52:12.890Z,99843
2022-07-29T17:57:12.882Z,99849
2022-07-29T18:02:13.009Z,99854
2022-07-29T18:07:12.864Z,99860
2022-07-29T18:12:13.059Z,99860
2022-07-29T18:17:12.911Z,99867
2022-07-29T18:22:12.898Z,99867
2022-07-29T18:27:12.908Z,99889
2022-07-29T18:32:12.920Z,99889
2022-07-29T18:37:12.879Z,99910
2022-07-29T18:42:12.929Z,99910
2022-07-29T18:52:12.919Z,99930
2022-07-29T18:57:55.305Z,99934
2022-07-29T19:07:12.929Z,99960
2022-07-29T19:12:12.957Z,99958
2022-07-29T19:17:12.937Z,99957
2022-07-29T19:22:12.974Z,99960
2022-07-29T19:27:12.952Z,99960
2022-07-29T19:32:12.917Z,99953
2022-07-29T19:42:12.972Z,99953
2022-07-29T19:47:17.302Z,99949
2022-07-29T19:52:12.937Z,99950
2022-07-29T19:57:12.969Z,99950
2022-07-29T20:02:13.273Z,99953
2022-07-29T20:07:12.985Z,99948
2022-07-29T20:12:12.940Z,99948
2022-07-29T20:17:12.972Z,99959
2022-07-29T20:22:12.983Z,99962
2022-07-29T20:27:13.663Z,99965
2022-07-29T20:32:12.977Z,99976
2022-07-29T20:37:12.959Z,99976
2022-07-29T20:47:12.990Z,99980
2022-07-29T20:52:12.964Z,99985
2022-07-29T20:57:12.999Z,99993
2022-07-29T21:02:13.153Z,100001
2022-07-29T21:07:13.005Z,99997
2022-07-29T21:12:12.976Z,99998
2022-07-29T21:22:13.034Z,100007
2022-07-29T21:27:20.879Z,100004
2022-07-29T21:32:13.593Z,100004
2022-07-29T21:37:13.049Z,100008
2022-07-29T21:42:13.090Z,100016
2022-07-29T21:47:13.024Z,100025
2022-07-29T21:52:13.051Z,100035
2022-07-29T21:57:13.034Z,100037
2022-07-29T22:02:13.048Z,100046
2022-07-29T22:07:12.996Z,100048
2022-07-29T22:12:13.043Z,100052
2022-07-29T22:17:13.105Z,100042
2022-07-29T22:22:13.055Z,100035
2022-07-29T22:27:13.004Z,100041
2022-07-29T22:32:13.048Z,100046
2022-07-29T22:37:13.054Z,100049
2022-07-29T22:42:13.092Z,100042
2022-07-29T22:47:13.049Z,100033
2022-07-29T22:52:13.279Z,100037
2022-07-29T22:57:13.092Z,100036
2022-07-29T23:02:13.065Z,100037
2022-07-29T23:07:13.082Z,100037
2022-07-29T23:12:13.061Z,100023
2022-07-29T23:17:13.119Z,100019
2022-07-29T23:22:13.084Z,100019
2022-07-29T23:27:13.070Z,100016
2022-07-29T23:32:13.080Z,100016
2022-07-29T23:37:13.091Z,100001
2022-07-29T23:42:13.095Z,99997
2022-07-29T23:47:13.062Z,99994
2022-07-29T23:52:13.101Z,99985
2022-07-29T23:57:13.112Z,99984
